Time;durP1;ratioP1;P1;durP2;ratioP2;P2;SDS_P1;SDS_P2;PMS_P1;PMS_P2;Temp;Humidity;BMP_temperature;BMP_pressure;BME280_temperature;BME280_humidity;BME280_pressure;Samples;Min_cycle;Max_cycle;Signal;HPM_P1;HPM_P2
2022/04/23 00:00:00;;;;;;;;;17.25;13.75;;;;;16.24;46.02;99746.63;2403589;28;45295;-82
2022/04/23 00:01:10;;;;;;;;;20.25;18.25;;;;;16.24;45.90;99743.13;2403363;28;45179;-82
2022/04/23 00:02:21;;;;;;;;;16.50;16.50;;;;;16.23;46.19;99738.78;2403663;28;45442;-82
2022/04/23 00:03:31;;;;;;;;;21.75;18.75;;;;;16.23;46.63;99741.44;2403404;28;46299;-82
2022/04/23 00:04:41;;;;;;;;;20.75;18.75;;;;;16.23;46.87;99741.44;2403425;28;44678;-82
2022/04/23 00:05:52;;;;;;;;;19.25;19.00;;;;;16.23;46.20;99741.44;2404720;28;45480;-82
2022/04/23 00:07:04;;;;;;;;;18.50;18.25;;;;;16.22;46.24;99743.25;2406203;28;45222;-82
2022/04/23 00:08:14;;;;;;;;;21.75;20.50;;;;;16.20;46.10;99745.16;2405363;28;46233;-82
2022/04/23 00:09:25;;;;;;;;;20.50;18.75;;;;;16.19;46.32;99736.38;2413283;28;45138;-81
2022/04/23 00:10:35;;;;;;;;;23.00;19.75;;;;;16.19;46.35;99735.53;2395043;28;45373;-81
2022/04/23 00:11:47;;;;;;;;;20.75;18.75;;;;;16.18;46.42;99734.66;2402246;28;45373;-81
2022/04/23 00:12:59;;;;;;;;;26.75;21.75;;;;;16.18;46.24;99736.47;2403370;28;45469;-81
2022/04/23 00:14:09;;;;;;;;;22.75;22.50;;;;;16.17;46.33;99737.44;2403800;28;45199;-81
2022/04/23 00:15:21;;;;;;;;;17.75;17.75;;;;;16.16;46.53;99733.09;2403306;28;45159;-82
2022/04/23 00:16:32;;;;;;;;;21.75;17.50;;;;;16.13;46.69;99734.16;2403580;28;45430;-82
2022/04/23 00:17:46;;;;;;;;;19.25;18.00;;;;;16.13;46.54;99728.84;2403475;28;45316;-81
2022/04/23 00:18:58;;;;;;;;;23.50;20.50;;;;;16.14;46.75;99737.66;2403067;28;45226;-82
2022/04/23 00:20:08;;;;;;;;;21.75;18.50;;;;;16.10;46.60;99729.06;2404599;28;46586;-82
2022/04/23 00:21:19;;;;;;;;;22.75;21.50;;;;;16.09;46.71;99727.41;2402933;28;45249;-82
2022/04/23 00:22:30;;;;;;;;;22.50;19.50;;;;;16.10;46.62;99729.06;2387767;28;46554;-81
2022/04/23 00:23:40;;;;;;;;;21.00;19.50;;;;;16.06;46.87;99731.09;2399257;28;45234;-81
2022/04/23 00:24:50;;;;;;;;;23.00;20.50;;;;;16.06;46.95;99731.09;2403339;28;46654;-81
2022/04/23 00:26:01;;;;;;;;;22.00;17.75;;;;;16.05;47.33;99733.88;2403682;28;45242;-81
2022/04/23 00:27:11;;;;;;;;;19.50;16.75;;;;;16.03;47.11;99725.13;2410646;28;45361;-82
2022/04/23 00:28:21;;;;;;;;;21.75;18.50;;;;;16.01;46.92;99727.91;2403161;28;44732;-82
2022/04/23 00:29:32;;;;;;;;;21.00;19.00;;;;;15.99;46.89;99719.22;2395978;28;45365;-83
2022/04/23 00:30:42;;;;;;;;;19.00;17.50;;;;;15.96;47.16;99725.59;2392939;28;44831;-82
2022/04/23 00:31:52;;;;;;;;;24.25;20.75;;;;;15.95;46.96;99729.19;2395508;28;45306;-82
2022/04/23 00:33:03;;;;;;;;;16.50;15.50;;;;;15.94;47.47;99721.38;2411583;28;45255;-83
2022/04/23 00:34:14;;;;;;;;;22.00;19.75;;;;;15.92;47.43;99723.28;2401627;28;45345;-82
2022/04/23 00:35:24;;;;;;;;;21.50;19.50;;;;;15.90;47.48;99720.72;2400991;28;44776;-82
2022/04/23 00:36:35;;;;;;;;;19.50;18.25;;;;;15.90;47.23;99720.72;2412678;28;45377;-82
2022/04/23 00:37:46;;;;;;;;;21.50;21.00;;;;;15.90;47.39;99726.03;2394134;28;45211;-83
2022/04/23 00:38:56;;;;;;;;;20.50;18.50;;;;;15.86;47.17;99712.16;2399485;28;45408;-83
2022/04/23 00:40:07;;;;;;;;;22.25;19.25;;;;;15.85;47.55;99714.94;2400496;28;45238;-83
2022/04/23 00:41:52;;;;;;;;;22.00;21.00;;;;;15.83;47.52;99709.72;2402101;28;45218;-82
2022/04/23 00:42:57;;;;;;;;;19.25;18.25;;;;;15.82;47.78;99708.06;2388796;28;45453;-83
2022/04/23 00:44:08;;;;;;;;;24.00;19.25;;;;;15.81;48.08;99702.84;2402072;28;46656;-82
2022/04/23 00:45:22;;;;;;;;;28.25;20.50;;;;;15.80;47.72;99698.53;2412955;28;45303;-82
2022/04/23 00:46:33;;;;;;;;;20.25;18.50;;;;;15.78;48.09;99705.75;2397077;28;46276;-82
2022/04/23 00:47:43;;;;;;;;;22.00;18.50;;;;;15.76;47.58;99700.53;2404219;28;45476;-82
2022/04/23 00:48:53;;;;;;;;;22.00;20.25;;;;;15.75;47.59;99702.31;2395236;28;46486;-82
2022/04/23 00:50:04;;;;;;;;;21.50;19.50;;;;;15.75;47.97;99697.03;2402975;28;44645;-82
2022/04/23 00:51:15;;;;;;;;;17.00;14.75;;;;;15.72;47.88;99691.97;2403268;28;45603;-82
2022/04/23 00:52:25;;;;;;;;;20.25;19.75;;;;;15.71;48.03;99695.56;2403263;28;45288;-82
2022/04/23 00:53:36;;;;;;;;;24.25;18.75;;;;;15.69;48.12;99689.53;2405897;28;45616;-82
2022/04/23 00:54:46;;;;;;;;;19.25;17.75;;;;;15.67;48.56;99688.81;2403353;28;45226;-83
2022/04/23 00:55:58;;;;;;;;;21.00;20.50;;;;;15.68;48.16;99690.47;2402578;28;45455;-83
2022/04/23 00:57:09;;;;;;;;;24.00;19.25;;;;;15.67;47.71;99682.66;2402632;28;45313;-82
2022/04/23 00:58:20;;;;;;;;;23.00;18.00;;;;;15.66;47.93;99686.25;2411584;28;45452;-84
2022/04/23 00:59:31;;;;;;;;;20.00;20.00;;;;;15.64;47.87;99681.06;2404224;28;45456;-83
2022/04/23 01:00:42;;;;;;;;;20.75;20.25;;;;;15.63;48.25;99676.75;2406272;28;46288;-84
2022/04/23 01:01:53;;;;;;;;;21.00;17.50;;;;;15.62;47.97;99675.91;2403314;28;44809;-83
2022/04/23 01:03:03;;;;;;;;;24.00;19.25;;;;;15.60;48.25;99680.47;2403187;28;45520;-84
2022/04/23 01:04:14;;;;;;;;;23.50;22.00;;;;;15.61;48.03;99678.63;2393029;28;45413;-84
2022/04/23 01:05:25;;;;;;;;;21.75;18.75;;;;;15.60;48.31;99682.25;2395499;28;46148;-83
2022/04/23 01:06:36;;;;;;;;;19.50;18.75;;;;;15.58;48.28;99684.16;2402875;28;45404;-83
2022/04/23 01:07:46;;;;;;;;;23.00;21.75;;;;;15.57;48.28;99671.88;2403247;28;45363;-82
2022/04/23 01:08:58;;;;;;;;;27.75;23.00;;;;;15.57;48.33;99679.81;2402994;28;45207;-81
2022/04/23 01:10:10;;;;;;;;;26.00;22.00;;;;;15.55;48.05;99666.69;2403031;28;45421;-80
2022/04/23 01:11:20;;;;;;;;;23.75;21.50;;;;;15.57;48.13;99671.88;2403244;28;45279;-83
2022/04/23 01:12:31;;;;;;;;;20.50;18.75;;;;;15.56;48.07;99675.47;2402943;28;46188;-83
2022/04/23 01:13:43;;;;;;;;;20.25;19.25;;;;;15.53;48.01;99672.09;2392093;28;45528;-83
2022/04/23 01:14:58;;;;;;;;;24.75;21.25;;;;;15.54;48.24;99670.28;2395769;28;45677;-83
2022/04/23 01:16:08;;;;;;;;;25.00;22.75;;;;;15.54;48.32;99675.59;2403302;28;45233;-82
2022/04/23 01:17:19;;;;;;;;;21.75;19.75;;;;;15.53;48.22;99672.09;2402916;28;46159;-82
2022/04/23 01:18:29;;;;;;;;;27.25;19.00;;;;;15.50;48.29;99667.03;2403165;28;44762;-82
2022/04/23 01:19:40;;;;;;;;;22.00;22.00;;;;;15.50;48.32;99668.81;2402357;28;46496;-82
2022/04/23 01:20:51;;;;;;;;;22.75;20.50;;;;;15.49;48.38;99667.13;2402714;28;45290;-82
2022/04/23 01:22:02;;;;;;;;;24.50;22.00;;;;;15.51;48.47;99668.69;2403003;28;45460;-81
2022/04/23 01:23:13;;;;;;;;;25.50;22.75;;;;;15.51;48.46;99668.69;2392971;28;45389;-81
2022/04/23 01:24:24;;;;;;;;;19.75;19.75;;;;;15.49;48.25;99667.13;2386107;28;48357;-80
2022/04/23 01:25:35;;;;;;;;;22.75;21.25;;;;;15.47;48.53;99656.66;2395448;28;44731;-80
2022/04/23 01:26:45;;;;;;;;;25.00;20.25;;;;;15.50;48.68;99666.19;2402628;28;45342;-80
2022/04/23 01:27:56;;;;;;;;;27.00;20.25;;;;;15.49;48.48;99667.13;2402946;28;45484;-82
2022/04/23 01:29:06;;;;;;;;;23.25;20.75;;;;;15.47;48.28;99663.72;2404060;28;46101;-82
2022/04/23 01:30:17;;;;;;;;;26.75;24.00;;;;;15.46;48.43;99670.00;2392244;28;45310;-83
2022/04/23 01:31:28;;;;;;;;;23.75;20.00;;;;;15.43;48.24;99665.78;2377856;28;47218;-84
2022/04/23 01:32:38;;;;;;;;;24.25;21.00;;;;;15.41;48.27;99657.91;2389851;28;45350;-83
2022/04/23 01:33:49;;;;;;;;;24.75;20.75;;;;;15.43;48.40;99664.91;2402692;28;45341;-82
2022/04/23 01:34:59;;;;;;;;;27.00;24.00;;;;;15.41;48.40;99663.22;2403983;28;45297;-82
2022/04/23 01:36:13;;;;;;;;;23.00;20.75;;;;;15.42;48.16;99661.41;2411653;28;45318;-81
2022/04/23 01:37:23;;;;;;;;;18.50;17.50;;;;;15.41;48.59;99657.91;2400942;28;45333;-85
2022/04/23 01:38:33;;;;;;;;;24.00;21.25;;;;;15.40;48.35;99660.69;2402829;28;46403;-82
2022/04/23 01:39:44;;;;;;;;;21.75;20.00;;;;;15.41;48.18;99663.22;2402108;28;45325;-82
2022/04/23 01:40:55;;;;;;;;;28.75;20.00;;;;;15.40;48.33;99660.69;2402944;28;45407;-81
2022/04/23 01:42:05;;;;;;;;;22.50;21.50;;;;;15.40;48.22;99661.53;2402819;28;44806;-81
2022/04/23 01:43:16;;;;;;;;;23.50;20.25;;;;;15.40;48.35;99656.25;2402914;28;46446;-81
2022/04/23 01:44:26;;;;;;;;;27.50;24.50;;;;;15.40;48.51;99656.25;2402645;28;45233;-80
2022/04/23 01:45:38;;;;;;;;;20.25;19.00;;;;;15.40;48.48;99655.38;2410375;28;46201;-80
2022/04/23 01:46:48;;;;;;;;;21.25;20.50;;;;;15.40;48.31;99653.59;2403821;28;44748;-80
2022/04/23 01:47:59;;;;;;;;;24.75;22.75;;;;;15.38;48.25;99654.66;2403361;28;45451;-80
2022/04/23 01:49:09;;;;;;;;;26.75;23.25;;;;;15.37;48.25;99658.25;2403052;28;45221;-80
2022/04/23 01:50:20;;;;;;;;;23.00;20.75;;;;;15.35;48.40;99654.88;2402669;28;45310;-80
2022/04/23 01:51:30;;;;;;;;;26.00;22.50;;;;;15.35;48.49;99657.50;2402865;28;45425;-80
2022/04/23 01:52:40;;;;;;;;;25.25;23.00;;;;;15.34;48.58;99656.66;2403381;28;45397;-79
2022/04/23 01:53:51;;;;;;;;;24.00;20.50;;;;;15.35;48.37;99653.06;2403301;28;45208;-80
2022/04/23 01:55:01;;;;;;;;;24.50;22.25;;;;;15.34;48.35;99647.88;2402739;28;45567;-79
2022/04/23 01:56:11;;;;;;;;;26.75;23.75;;;;;15.32;48.51;99645.34;2406428;28;44765;-80
2022/04/23 01:57:22;;;;;;;;;24.25;22.00;;;;;15.33;48.57;99655.00;2406508;28;45451;-80
2022/04/23 01:58:32;;;;;;;;;30.25;25.00;;;;;15.33;48.88;99648.84;2402910;28;45262;-79
2022/04/23 01:59:43;;;;;;;;;21.75;21.25;;;;;15.34;48.76;99651.38;2407111;28;46463;-79
2022/04/23 02:00:54;;;;;;;;;25.25;22.75;;;;;15.34;48.51;99642.56;2403639;28;45433;-79
2022/04/23 02:02:04;;;;;;;;;24.75;21.50;;;;;15.34;48.47;99639.94;2402681;28;45477;-78
2022/04/23 02:03:15;;;;;;;;;23.00;20.50;;;;;15.33;48.32;99643.53;2402843;28;45270;-79
2022/04/23 02:04:25;;;;;;;;;18.75;17.50;;;;;15.32;48.71;99642.69;2402148;28;46456;-80
2022/04/23 02:05:37;;;;;;;;;24.75;24.00;;;;;15.33;48.38;99643.53;2403227;28;44822;-80
2022/04/23 02:06:48;;;;;;;;;21.00;21.00;;;;;15.33;48.54;99640.91;2402661;28;45487;-80
2022/04/23 02:07:58;;;;;;;;;24.00;20.75;;;;;15.32;48.46;99637.41;2409717;28;45568;-80
2022/04/23 02:09:08;;;;;;;;;23.00;22.75;;;;;15.32;48.54;99647.13;2403452;28;46267;-80
2022/04/23 02:10:19;;;;;;;;;25.00;22.75;;;;;15.33;48.45;99643.53;2402888;28;45202;-80
2022/04/23 02:11:29;;;;;;;;;23.00;19.75;;;;;15.32;48.48;99633.91;2402740;28;45282;-80
2022/04/23 02:12:40;;;;;;;;;22.50;20.50;;;;;15.32;48.74;99645.34;2402579;28;45172;-79
2022/04/23 02:13:51;;;;;;;;;21.75;19.50;;;;;15.33;48.78;99643.53;2402571;28;45747;-80
2022/04/23 02:15:01;;;;;;;;;23.50;21.75;;;;;15.32;48.60;99634.75;2402329;28;45218;-80
2022/04/23 02:16:12;;;;;;;;;23.25;22.00;;;;;15.29;48.65;99638.47;2402807;28;46067;-80
2022/04/23 02:17:32;;;;;;;;;26.25;22.00;;;;;15.28;48.46;99642.03;2404503;28;44774;-79
2022/04/23 02:18:42;;;;;;;;;22.25;21.75;;;;;15.28;48.64;99643.88;2407622;28;46443;-79
2022/04/23 02:19:52;;;;;;;;;28.00;22.00;;;;;15.28;48.82;99642.03;2402690;28;45242;-79
2022/04/23 02:21:02;;;;;;;;;24.75;22.75;;;;;15.28;48.61;99642.03;2407733;28;45340;-80
2022/04/23 02:22:13;;;;;;;;;25.50;23.00;;;;;15.29;48.62;99637.59;2406930;28;45154;-80
2022/04/23 02:23:23;;;;;;;;;26.50;24.25;;;;;15.25;48.52;99623.75;2393225;28;45349;-80
2022/04/23 02:24:34;;;;;;;;;23.25;22.25;;;;;15.27;48.53;99640.38;2401641;28;45448;-79
2022/04/23 02:25:44;;;;;;;;;25.75;23.25;;;;;15.25;48.60;99634.34;2401863;28;46575;-79
2022/04/23 02:26:54;;;;;;;;;32.25;24.75;;;;;15.24;48.60;99627.34;2410740;28;45276;-79
2022/04/23 02:28:05;;;;;;;;;23.25;21.00;;;;;15.25;48.83;99630.84;2404150;28;45266;-81
2022/04/23 02:29:15;;;;;;;;;28.75;22.00;;;;;15.26;48.52;99630.72;2405178;28;45220;-80
2022/04/23 02:30:25;;;;;;;;;23.00;21.00;;;;;15.24;48.68;99632.63;2412062;28;45381;-80
2022/04/23 02:31:36;;;;;;;;;21.50;20.25;;;;;15.25;48.56;99622.91;2393347;28;45219;-81
2022/04/23 02:32:47;;;;;;;;;23.50;20.25;;;;;15.23;48.66;99628.31;2389603;28;46261;-80
2022/04/23 02:33:58;;;;;;;;;24.75;20.00;;;;;15.23;48.59;99630.97;2394427;28;45241;-82
2022/04/23 02:35:10;;;;;;;;;21.75;21.25;;;;;15.23;48.49;99628.31;2388108;28;45431;-82
2022/04/23 02:36:20;;;;;;;;;30.75;25.00;;;;;15.22;48.46;99625.75;2391439;28;44758;-83
2022/04/23 02:37:34;;;;;;;;;24.25;23.75;;;;;15.22;48.61;99631.91;2394710;28;46211;-83
2022/04/23 02:38:45;;;;;;;;;24.50;22.75;;;;;15.20;48.88;99628.53;2397912;28;45215;-83
2022/04/23 02:39:55;;;;;;;;;21.75;20.25;;;;;15.21;48.81;99629.38;2402321;28;45478;-83
2022/04/23 02:41:06;;;;;;;;;22.00;22.00;;;;;15.21;48.79;99630.19;2402651;28;45376;-83
2022/04/23 02:42:17;;;;;;;;;30.50;26.25;;;;;15.22;49.03;99626.63;2393023;28;47314;-83
2022/04/23 02:43:28;;;;;;;;;22.50;19.50;;;;;15.20;48.80;99623.22;2396795;28;45299;-83
2022/04/23 02:44:38;;;;;;;;;25.50;22.50;;;;;15.20;48.74;99620.59;2403806;28;46322;-83
2022/04/23 02:45:48;;;;;;;;;26.25;20.00;;;;;15.20;48.69;99615.28;2404173;28;45148;-83
2022/04/23 02:47:00;;;;;;;;;24.00;22.75;;;;;15.19;48.79;99616.22;2404217;28;46544;-83
2022/04/23 02:48:10;;;;;;;;;28.25;19.50;;;;;15.19;49.02;99616.22;2400606;28;45327;-83
2022/04/23 02:49:22;;;;;;;;;24.50;20.75;;;;;15.16;48.89;99601.41;2402828;28;46518;-83
2022/04/23 02:50:37;;;;;;;;;26.50;22.25;;;;;15.15;48.54;99612.13;2404376;28;44763;-83
2022/04/23 02:51:47;;;;;;;;;25.25;22.25;;;;;15.10;48.63;99611.59;2404184;28;46517;-83
2022/04/23 02:52:59;;;;;;;;;24.75;21.00;;;;;15.07;48.77;99605.56;2406988;28;45206;-83
2022/04/23 02:54:09;;;;;;;;;24.00;22.25;;;;;15.07;48.87;99610.88;2395941;28;47177;-83
2022/04/23 02:55:20;;;;;;;;;22.75;21.50;;;;;15.06;48.98;99603.88;2396957;28;45179;-83
2022/04/23 02:56:33;;;;;;;;;23.25;22.50;;;;;15.06;48.84;99600.41;2408437;28;45365;-83
2022/04/23 02:57:43;;;;;;;;;22.00;17.75;;;;;15.05;49.04;99604.84;2408233;28;45237;-82
2022/04/23 02:58:54;;;;;;;;;28.75;24.00;;;;;15.03;48.99;99598.81;2403887;28;45333;-82
2022/04/23 03:00:06;;;;;;;;;29.25;23.50;;;;;15.02;49.07;99591.81;2404034;28;45323;-82
2022/04/23 03:01:17;;;;;;;;;27.75;24.75;;;;;15.02;49.00;99604.19;2403889;28;45281;-81
2022/04/23 03:02:28;;;;;;;;;26.50;23.50;;;;;14.99;49.00;99594.66;2404071;28;45253;-82
2022/04/23 03:03:43;;;;;;;;;22.50;19.50;;;;;14.99;49.14;99596.50;2403544;28;45639;-82
2022/04/23 03:04:54;;;;;;;;;25.50;19.75;;;;;15.00;49.14;99606.97;2408236;28;45438;-82
2022/04/23 03:06:07;;;;;;;;;24.25;23.00;;;;;14.99;49.12;99599.13;2413100;28;45469;-82
2022/04/23 03:07:17;;;;;;;;;24.75;23.75;;;;;15.00;49.12;99606.09;2394733;28;45223;-82
2022/04/23 03:08:28;;;;;;;;;25.50;22.50;;;;;14.98;49.07;99602.72;2406429;28;45330;-82
2022/04/23 03:09:38;;;;;;;;;25.50;22.75;;;;;14.97;49.00;99601.88;2404222;28;45290;-81
2022/04/23 03:10:48;;;;;;;;;23.25;20.75;;;;;14.99;49.38;99601.78;2403830;28;45202;-82
2022/04/23 03:11:59;;;;;;;;;24.50;21.50;;;;;14.98;49.00;99602.72;2403844;28;45200;-82
2022/04/23 03:13:09;;;;;;;;;27.75;22.00;;;;;14.99;48.89;99599.13;2403983;28;45459;-82
2022/04/23 03:14:20;;;;;;;;;27.75;24.25;;;;;14.99;49.07;99588.56;2403951;28;45130;-83
2022/04/23 03:15:30;;;;;;;;;25.25;22.25;;;;;14.98;49.57;99598.28;2393699;28;46347;-83
2022/04/23 03:16:41;;;;;;;;;26.25;24.00;;;;;14.98;49.24;99598.28;2387105;28;45276;-83
2022/04/23 03:18:03;;;;;;;;;28.00;25.50;;;;;14.97;49.41;99593.94;2391774;28;46094;-82
2022/04/23 03:19:14;;;;;;;;;23.75;23.00;;;;;14.94;49.38;99592.34;2402063;28;45451;-83
2022/04/23 03:20:24;;;;;;;;;21.75;18.75;;;;;14.94;49.11;99597.63;2403822;28;45354;-84
2022/04/23 03:21:35;;;;;;;;;25.50;23.00;;;;;14.93;49.49;99595.97;2403968;28;45449;-83
2022/04/23 03:22:45;;;;;;;;;23.00;21.25;;;;;14.92;49.28;99594.25;2403735;28;46183;-83
2022/04/23 03:23:55;;;;;;;;;29.50;22.00;;;;;14.93;49.16;99589.81;2393676;28;45290;-84
2022/04/23 03:25:07;;;;;;;;;25.50;20.50;;;;;14.89;48.97;99583.88;2396513;28;45444;-83
2022/04/23 03:26:17;;;;;;;;;25.25;23.25;;;;;14.90;49.05;99582.09;2411685;28;45245;-82
2022/04/23 03:27:29;;;;;;;;;28.25;23.00;;;;;14.87;49.26;99583.16;2404568;28;46864;-82
2022/04/23 03:28:40;;;;;;;;;22.25;19.00;;;;;14.87;49.34;99582.28;2397021;28;45505;-83
2022/04/23 03:29:51;;;;;;;;;24.75;21.50;;;;;14.88;49.29;99584.00;2396165;28;46344;-83
2022/04/23 03:31:02;;;;;;;;;25.50;24.50;;;;;14.85;49.37;99583.28;2403967;28;45309;-83
2022/04/23 03:32:13;;;;;;;;;25.75;22.50;;;;;14.84;49.30;99581.53;2403699;28;45424;-83
2022/04/23 03:33:23;;;;;;;;;27.50;22.00;;;;;14.84;49.85;99578.06;2403908;28;45472;-84
2022/04/23 03:34:34;;;;;;;;;24.25;21.00;;;;;14.84;49.73;99581.53;2403740;28;46500;-84
2022/04/23 03:35:44;;;;;;;;;24.00;20.50;;;;;14.84;49.69;99581.53;2403626;28;44782;-84
2022/04/23 03:36:54;;;;;;;;;23.50;21.25;;;;;14.82;49.60;99582.59;2403617;28;45365;-85
2022/04/23 03:38:05;;;;;;;;;25.25;22.75;;;;;14.82;49.55;99583.44;2406587;28;45344;-84
2022/04/23 03:39:15;;;;;;;;;26.50;23.25;;;;;14.81;49.74;99578.28;2408731;28;45325;-83
2022/04/23 03:40:26;;;;;;;;;22.00;22.00;;;;;14.80;49.70;99577.41;2409885;28;44647;-83
2022/04/23 03:41:36;;;;;;;;;25.50;22.75;;;;;14.78;49.54;99581.97;2406754;28;46618;-86
2022/04/23 03:42:48;;;;;;;;;22.75;22.00;;;;;14.79;49.38;99574.88;2394379;28;44518;-84
2022/04/23 03:43:59;;;;;;;;;22.50;22.00;;;;;14.77;49.57;99582.06;2403654;28;45416;-85
2022/04/23 03:45:10;;;;;;;;;25.00;23.75;;;;;14.76;49.31;99572.44;2393666;28;45247;-82
2022/04/23 03:46:21;;;;;;;;;22.00;18.75;;;;;14.77;49.40;99579.41;2396396;28;45317;-81
2022/04/23 03:47:32;;;;;;;;;23.75;21.50;;;;;14.75;49.50;99571.59;2402738;28;44680;-80
2022/04/23 03:48:42;;;;;;;;;28.25;23.75;;;;;14.76;49.70;99573.31;2403324;28;45503;-80
2022/04/23 03:49:53;;;;;;;;;21.75;21.25;;;;;14.75;50.24;99566.31;2403896;28;45356;-80
2022/04/23 03:51:03;;;;;;;;;24.25;21.75;;;;;14.75;49.76;99568.94;2403638;28;45456;-80
2022/04/23 03:52:13;;;;;;;;;23.75;20.50;;;;;14.76;49.80;99573.31;2403932;28;44734;-80
2022/04/23 03:53:24;;;;;;;;;24.25;20.75;;;;;14.74;49.56;99567.28;2409729;28;45313;-80
2022/04/23 03:54:34;;;;;;;;;22.25;19.25;;;;;14.74;49.81;99564.63;2409237;28;45249;-81
2022/04/23 03:55:44;;;;;;;;;22.00;20.00;;;;;14.72;49.75;99567.38;2403358;28;45265;-83
2022/04/23 03:56:55;;;;;;;;;27.75;23.50;;;;;14.70;50.00;99560.50;2403166;28;44797;-83
2022/04/23 03:58:05;;;;;;;;;25.50;21.75;;;;;14.71;49.57;99560.41;2393333;28;47162;-87
2022/04/23 03:59:20;;;;;;;;;20.25;19.25;;;;;14.71;50.22;99567.47;2396307;28;44732;-86
2022/04/23 04:00:31;;;;;;;;;20.75;20.75;;;;;14.71;50.37;99562.19;2406575;28;48277;-87
2022/04/23 04:01:41;;;;;;;;;24.50;20.25;;;;;14.70;50.27;99565.78;2402816;28;45444;-86
2022/04/23 04:02:54;;;;;;;;;25.50;19.25;;;;;14.71;49.92;99562.19;2403634;28;46401;-87
2022/04/23 04:04:05;;;;;;;;;23.00;19.50;;;;;14.71;49.88;99559.56;2403721;28;44699;-87
2022/04/23 04:05:16;;;;;;;;;23.00;20.00;;;;;14.71;49.68;99559.56;2403357;28;45449;-84
2022/04/23 04:06:27;;;;;;;;;19.00;17.50;;;;;14.69;49.52;99556.16;2403552;28;45259;-81
2022/04/23 04:07:44;;;;;;;;;23.00;22.00;;;;;14.67;49.84;99564.19;2405080;28;46703;-81
2022/04/23 04:08:55;;;;;;;;;22.75;18.75;;;;;14.66;49.75;99557.22;2394764;28;45448;-82
2022/04/23 04:10:06;;;;;;;;;23.25;21.75;;;;;14.67;49.68;99563.38;2396098;28;46572;-82
2022/04/23 04:11:16;;;;;;;;;21.75;21.75;;;;;14.64;50.02;99553.84;2403614;28;45233;-81
2022/04/23 04:12:27;;;;;;;;;23.00;20.75;;;;;14.63;49.61;99557.44;2393342;28;47451;-82
2022/04/23 04:13:38;;;;;;;;;24.00;19.00;;;;;14.64;49.59;99553.84;2396530;28;45318;-80
2022/04/23 04:14:48;;;;;;;;;26.75;21.50;;;;;14.62;49.69;99550.44;2407492;28;45287;-80
2022/04/23 04:15:58;;;;;;;;;22.50;21.00;;;;;14.62;49.74;99551.28;2404367;28;45369;-80
2022/04/23 04:17:11;;;;;;;;;23.75;21.75;;;;;14.61;49.71;99552.25;2403507;28;45380;-80
2022/04/23 04:18:22;;;;;;;;;25.50;22.00;;;;;14.59;49.64;99543.56;2403617;28;45347;-80
2022/04/23 04:19:34;;;;;;;;;22.75;20.50;;;;;14.57;49.56;99545.47;2403511;28;46395;-80
2022/04/23 04:20:49;;;;;;;;;21.75;19.75;;;;;14.58;50.14;99543.69;2403573;28;45487;-80
2022/04/23 04:22:02;;;;;;;;;22.25;22.25;;;;;14.57;50.29;99550.75;2393304;28;46344;-80
2022/04/23 04:23:13;;;;;;;;;20.75;19.50;;;;;14.58;50.38;99548.97;2396635;28;45446;-80
2022/04/23 04:24:24;;;;;;;;;26.75;21.00;;;;;14.60;50.13;99558.50;2403505;28;47077;-80
2022/04/23 04:25:35;;;;;;;;;23.75;21.50;;;;;14.59;50.23;99559.44;2408568;28;45456;-80
2022/04/23 04:26:47;;;;;;;;;21.25;18.75;;;;;14.60;50.19;99558.50;2403207;28;45374;-81
2022/04/23 04:28:01;;;;;;;;;26.50;22.75;;;;;14.59;50.21;99556.78;2403451;28;45285;-80
2022/04/23 04:29:12;;;;;;;;;23.50;21.00;;;;;14.60;50.14;99550.56;2403348;28;45321;-80
2022/04/23 04:30:22;;;;;;;;;26.00;20.50;;;;;14.59;50.13;99546.22;2403575;28;45326;-80
2022/04/23 04:31:48;;;;;;;;;25.25;20.25;;;;;14.59;50.06;99550.69;2403420;28;45416;-80
2022/04/23 04:32:58;;;;;;;;;22.50;21.00;;;;;14.57;49.93;99547.28;2403764;28;44661;-80
2022/04/23 04:34:08;;;;;;;;;21.50;21.25;;;;;14.54;49.77;99543.06;2403336;28;45568;-80
2022/04/23 04:35:19;;;;;;;;;23.75;19.00;;;;;14.52;50.21;99544.94;2407432;28;46036;-80
2022/04/23 04:36:29;;;;;;;;;23.00;20.75;;;;;14.51;50.19;99545.91;2402827;28;46298;-80
2022/04/23 04:37:39;;;;;;;;;24.25;21.75;;;;;14.49;49.82;99539.88;2403493;28;45246;-80
2022/04/23 04:38:50;;;;;;;;;19.75;19.75;;;;;14.48;50.10;99543.47;2403139;28;46269;-80
2022/04/23 04:40:00;;;;;;;;;18.25;18.25;;;;;14.48;50.05;99543.47;2403508;28;44799;-80
2022/04/23 04:41:12;;;;;;;;;28.25;22.50;;;;;14.46;49.90;99551.50;2403271;28;46281;-80
2022/04/23 04:42:22;;;;;;;;;26.25;23.50;;;;;14.44;50.16;99536.72;2403420;28;45317;-80
2022/04/23 04:43:33;;;;;;;;;26.75;22.00;;;;;14.43;50.09;99540.28;2403214;28;46299;-79
2022/04/23 04:44:43;;;;;;;;;24.75;24.00;;;;;14.39;50.15;99540.53;2405286;28;45564;-79
2022/04/23 04:45:53;;;;;;;;;28.00;20.75;;;;;14.37;50.18;99542.41;2408410;28;45359;-79
2022/04/23 04:47:05;;;;;;;;;25.25;21.75;;;;;14.35;50.23;99533.72;2393223;28;45394;-79
2022/04/23 04:48:15;;;;;;;;;22.00;21.50;;;;;14.36;50.22;99539.88;2399433;28;46675;-79
2022/04/23 04:49:25;;;;;;;;;25.50;21.00;;;;;14.34;50.27;99537.34;2411449;28;45250;-78
2022/04/23 04:50:36;;;;;;;;;21.25;19.75;;;;;14.32;50.21;99541.88;2408664;28;45430;-79
2022/04/23 04:51:46;;;;;;;;;26.50;22.75;;;;;14.29;50.55;99545.59;2411917;28;45388;-79
2022/04/23 04:53:00;;;;;;;;;24.75;24.75;;;;;14.29;50.50;99550.88;2410356;28;46187;-79
2022/04/23 04:54:10;;;;;;;;;22.25;21.00;;;;;14.28;50.49;99546.53;2411096;28;45297;-79
2022/04/23 04:55:21;;;;;;;;;27.00;23.25;;;;;14.29;50.48;99544.75;2404338;28;46290;-79
2022/04/23 04:56:32;;;;;;;;;22.50;19.75;;;;;14.30;50.32;99546.41;2393539;28;44827;-82
2022/04/23 04:57:43;;;;;;;;;26.75;22.25;;;;;14.30;50.76;99546.41;2386012;28;47297;-81
2022/04/23 04:58:53;;;;;;;;;23.25;22.75;;;;;14.29;50.55;99550.03;2395938;28;45520;-81
2022/04/23 05:00:04;;;;;;;;;23.25;21.00;;;;;14.28;50.42;99548.31;2403158;28;45418;-81
2022/04/23 05:01:15;;;;;;;;;22.75;21.50;;;;;14.29;50.75;99550.03;2408632;28;45297;-82
2022/04/23 05:02:26;;;;;;;;;24.00;22.50;;;;;14.28;50.64;99549.19;2406541;28;46413;-83
2022/04/23 05:03:36;;;;;;;;;20.75;20.75;;;;;14.29;50.34;99547.38;2393926;28;45294;-82
2022/04/23 05:04:47;;;;;;;;;24.25;21.50;;;;;14.28;50.51;99548.31;2401963;28;46320;-81
2022/04/23 05:05:57;;;;;;;;;24.50;23.00;;;;;14.27;50.52;99544.00;2401301;28;45484;-83
2022/04/23 05:07:07;;;;;;;;;27.25;21.75;;;;;14.25;50.58;99548.53;2400962;28;45435;-83
2022/04/23 05:08:18;;;;;;;;;22.00;22.00;;;;;14.23;50.87;99538.06;2393931;28;45215;-83
2022/04/23 05:09:28;;;;;;;;;21.00;21.00;;;;;14.24;50.85;99541.56;2391233;28;48388;-83
2022/04/23 05:10:38;;;;;;;;;26.25;21.50;;;;;14.23;51.11;99545.13;2395965;28;45282;-82
2022/04/23 05:11:49;;;;;;;;;21.75;20.75;;;;;14.24;51.13;99546.84;2402636;28;45228;-83
2022/04/23 05:12:59;;;;;;;;;23.50;22.75;;;;;14.23;50.62;99545.13;2412308;28;45210;-82
2022/04/23 05:14:10;;;;;;;;;25.00;22.50;;;;;14.23;50.70;99545.13;2400178;28;45409;-83
2022/04/23 05:15:20;;;;;;;;;25.00;22.50;;;;;14.24;50.73;99546.84;2396233;28;45240;-82
2022/04/23 05:16:31;;;;;;;;;26.25;23.00;;;;;14.23;50.70;99546.00;2402765;28;46284;-81
2022/04/23 05:17:41;;;;;;;;;23.25;22.50;;;;;14.23;50.61;99545.13;2403079;28;45443;-81
2022/04/23 05:18:52;;;;;;;;;22.25;21.75;;;;;14.22;50.94;99544.31;2403022;28;45393;-83
2022/04/23 05:20:02;;;;;;;;;23.25;22.25;;;;;14.22;50.80;99540.81;2403108;28;45285;-84
2022/04/23 05:21:13;;;;;;;;;25.50;22.75;;;;;14.23;50.89;99545.13;2403193;28;47597;-82
2022/04/23 05:22:23;;;;;;;;;28.25;23.00;;;;;14.22;50.78;99546.09;2392882;28;44731;-84
2022/04/23 05:23:34;;;;;;;;;26.25;22.50;;;;;14.22;50.56;99546.09;2395703;28;45418;-84
2022/04/23 05:24:44;;;;;;;;;27.75;26.50;;;;;14.20;50.83;99545.38;2403290;28;45392;-84
2022/04/23 05:25:55;;;;;;;;;23.50;21.50;;;;;14.19;50.75;99541.88;2402766;28;46173;-84